Flight Track Log - Related Links

Times and Time Zones

All times are in EDT time to prevent confusion due to time zone crossing. See the BER6776 flight status page for this flight to view local times or setup timezone preferences in your user account.

Time Position Orientation Groundspeed Altitude Reporting Facility
EDT Latitude Longitude Course Direction KTS MPH feet Rate Location/Type
Mon 02:48:00 PM 50.7611 8.1145 121° Southeast  Level Estimated
Mon 02:49:00 PM 50.7227 8.2095 122° Southeast  Level Estimated
Mon 02:50:00 PM 50.6843 8.3045 123° Southeast  Level Estimated
Mon 02:51:00 PM 50.6459 8.3993 123° Southeast  Level Estimated
Mon 02:52:00 PM 50.6073 8.4939 123° Southeast  Level Estimated
Mon 02:53:00 PM 50.5686 8.5884 123° Southeast  Level Estimated
Mon 02:54:00 PM 50.5299 8.6827 123° Southeast  Level Estimated
Mon 02:55:00 PM 50.4911 8.7768 123° Southeast  Level Estimated
Mon 02:56:00 PM 50.4523 8.8708 123° Southeast  Level Estimated
Mon 02:57:00 PM 50.4133 8.9647 123° Southeast  Level Estimated
Mon 02:58:00 PM 50.3743 9.0584 123° Southeast  Level Estimated
Mon 02:59:00 PM 50.3352 9.1519 123° Southeast  Level Estimated
Mon 03:00:00 PM 50.2961 9.2453 123° Southeast  Level Estimated
Mon 03:01:00 PM 50.2568 9.3385 123° Southeast  Level Estimated
Mon 03:02:00 PM 50.2175 9.4316 123° Southeast  Level Estimated
Mon 03:03:00 PM 50.1781 9.5245 123° Southeast  Level Estimated
Mon 03:04:00 PM 50.1386 9.6173 124° Southeast  Level Estimated
Mon 03:05:00 PM 50.0991 9.7099 124° Southeast  Level Estimated
Mon 03:06:00 PM 50.0595 9.8024 124° Southeast  Level Estimated
Mon 03:07:00 PM 50.0198 9.8947 124° Southeast  Level Estimated
Mon 03:08:00 PM 49.9801 9.9869 124° Southeast  Level Estimated
Mon 03:09:00 PM 49.9402 10.0789 124° Southeast  Level Estimated
Mon 03:10:00 PM 49.9003 10.1707 124° Southeast  Level Estimated
Mon 03:11:00 PM 49.8604 10.2625 124° Southeast  Level Estimated
Mon 03:12:00 PM 49.8203 10.3540 124° Southeast  Level Estimated
Mon 03:13:00 PM 49.7802 10.4454 124° Southeast  Level Estimated
Mon 03:14:00 PM 49.7400 10.5366 124° Southeast  Level Estimated
Mon 03:15:00 PM 49.6997 10.6278 124° Southeast  Level Estimated
Mon 03:16:00 PM 49.6594 10.7187 124° Southeast  Level Estimated
Mon 03:17:00 PM 49.6190 10.8095 124° Southeast  Level Estimated
Mon 03:18:00 PM 49.5785 10.9002 125° Southeast  Level Estimated
Mon 03:19:00 PM 49.5380 10.9907 125° Southeast  Level Estimated
Mon 03:20:00 PM 49.4986 11.0781 125° Southeast  Level Estimated
Mon 03:21:00 PM 49.4986 11.0781 327° Northwest  Level Estimated
Mon 03:22:00 PM 49.4986 11.0781 327° Northwest  Level Estimated
Mon 03:23:00 PM 49.4986 11.0781 327° Northwest  Level Estimated
Mon 03:24:00 PM 49.4986 11.0781 327° Northwest  Level Estimated
Mon 03:25:00 PM 49.4986 11.0781 327° Northwest  Level Estimated
Mon 03:26:00 PM 49.4986 11.0781 327° Northwest  Level Estimated
Mon 03:27:00 PM 49.4986 11.0781 327° Northwest  Level Estimated
Mon 03:28:00 PM 49.4986 11.0781 327° Northwest  Level Estimated
Mon 03:29:00 PM 49.4986 11.0781 327° Northwest  Level Estimated
Mon 03:30:00 PM 49.4986 11.0781 327° Northwest  Level Estimated
Mon 03:31:00 PM 49.4986 11.0781 327° Northwest  Level Estimated
Mon 03:32:00 PM 49.4986 11.0781 327° Northwest  Level Estimated
Mon 03:33:00 PM 49.4986 11.0781 327° Northwest  Level Estimated
Mon 03:34:00 PM 49.4986 11.0781 327° Northwest  Level Estimated
Mon 03:35:00 PM 49.4986 11.0781 327° Northwest  Level Estimated
Mon 03:36:00 PM 49.4986 11.0781 327° Northwest  Level Estimated

Login

Don't have an account? Register now (free) for customized features, flight alerts, and more!